createdAt,value
2022-10-01T00:02:51.417Z,7.60
2022-10-01T00:07:46.295Z,5.03
2022-10-01T00:12:44.648Z,4.55
2022-10-01T00:17:39.549Z,5.25
2022-10-01T00:22:33.304Z,4.32
2022-10-01T00:27:26.876Z,3.80
2022-10-01T00:32:20.080Z,5.13
2022-10-01T00:37:14.634Z,6.10
2022-10-01T00:42:18.492Z,6.03
2022-10-01T00:47:22.273Z,4.15
2022-10-01T00:52:20.316Z,6.35
2022-10-01T00:57:18.147Z,5.15
2022-10-01T01:02:12.001Z,6.38
2022-10-01T01:07:07.206Z,5.68
2022-10-01T01:12:11.849Z,8.95
2022-10-01T01:17:16.637Z,6.28
2022-10-01T01:22:13.573Z,7.57
2022-10-01T01:27:19.674Z,5.00
2022-10-01T01:32:20.678Z,4.80
2022-10-01T01:37:18.939Z,4.88
2022-10-01T01:42:18.450Z,9.88
2022-10-01T01:47:13.435Z,7.50
2022-10-01T01:52:13.639Z,5.43
2022-10-01T01:57:09.211Z,4.20
2022-10-01T02:02:04.334Z,4.60
2022-10-01T02:07:16.316Z,4.97
2022-10-01T02:12:21.644Z,5.95
2022-10-01T02:17:18.348Z,5.22
2022-10-01T02:22:18.051Z,6.32
2022-10-01T02:27:16.836Z,4.15
2022-10-01T02:32:12.312Z,4.10
2022-10-01T02:37:07.794Z,3.80
2022-10-01T02:42:05.133Z,6.50
2022-10-01T02:47:04.115Z,5.95
2022-10-01T02:52:09.172Z,4.40
2022-10-01T02:57:21.044Z,3.90
2022-10-01T03:02:14.662Z,5.32
2022-10-01T03:07:07.875Z,3.95
2022-10-01T03:12:01.239Z,6.30
2022-10-01T03:16:56.199Z,4.20
2022-10-01T03:21:49.536Z,6.57
2022-10-01T03:26:43.039Z,5.00
2022-10-01T03:31:37.270Z,5.20
2022-10-01T03:36:32.305Z,4.82
2022-10-01T03:41:25.692Z,5.50
2022-10-01T03:46:19.383Z,5.65
2022-10-01T03:51:15.592Z,6.80
2022-10-01T03:56:13.752Z,6.22
2022-10-01T04:01:06.982Z,6.65
2022-10-01T04:06:00.218Z,8.20
2022-10-01T04:10:53.461Z,8.82
2022-10-01T04:15:48.822Z,5.60
2022-10-01T04:20:43.109Z,9.32
2022-10-01T04:25:36.646Z,7.97
2022-10-01T04:30:31.957Z,8.07
2022-10-01T04:35:27.409Z,12.45
2022-10-01T04:40:20.690Z,5.50
2022-10-01T04:45:14.181Z,11.32
2022-10-01T04:50:08.065Z,14.85
2022-10-01T04:55:02.644Z,10.07
2022-10-01T04:59:57.150Z,7.93
2022-10-01T05:04:50.352Z,6.70
2022-10-01T05:09:43.722Z,7.22
2022-10-01T05:14:41.191Z,9.05
2022-10-01T05:19:36.016Z,8.60
2022-10-01T05:24:33.759Z,7.82
2022-10-01T05:29:26.981Z,7.38
2022-10-01T05:34:21.611Z,10.35
2022-10-01T05:39:17.051Z,11.35
2022-10-01T05:44:12.584Z,11.15
2022-10-01T05:49:07.804Z,9.55
2022-10-01T05:54:04.475Z,7.20
2022-10-01T05:58:58.560Z,7.32
2022-10-01T06:03:52.907Z,8.02
2022-10-01T06:08:47.004Z,6.95
2022-10-01T06:13:45.326Z,8.23
2022-10-01T06:18:38.814Z,7.18
2022-10-01T06:23:33.784Z,12.15
2022-10-01T06:28:48.710Z,7.82
2022-10-01T06:33:42.055Z,8.15
2022-10-01T06:38:35.678Z,7.40
2022-10-01T06:43:31.395Z,7.45
2022-10-01T06:48:26.476Z,8.63
2022-10-01T06:53:20.163Z,8.35
2022-10-01T06:58:15.670Z,9.95
2022-10-01T07:03:11.258Z,11.82
2022-10-01T07:08:06.732Z,10.13
2022-10-01T07:13:07.736Z,10.48
2022-10-01T07:18:01.353Z,16.42
2022-10-01T07:22:59.414Z,14.60
2022-10-01T07:27:57.845Z,11.95
2022-10-01T07:33:13.824Z,14.48
2022-10-01T07:38:10.299Z,12.57
2022-10-01T07:43:08.493Z,14.27
2022-10-01T07:48:03.609Z,14.38
2022-10-01T07:52:58.319Z,12.35
2022-10-01T07:57:53.544Z,14.02
2022-10-01T08:02:57.362Z,11.18
2022-10-01T08:07:51.574Z,12.68
2022-10-01T08:12:46.421Z,16.55
2022-10-01T08:17:40.266Z,14.10
2022-10-01T08:22:39.760Z,15.45
2022-10-01T08:27:38.745Z,13.85
2022-10-01T08:32:32.320Z,11.63
2022-10-01T08:37:30.048Z,13.95
2022-10-01T08:42:42.121Z,11.07
2022-10-01T08:47:43.971Z,12.50
2022-10-01T08:52:43.030Z,11.95
2022-10-01T08:57:43.069Z,11.55
2022-10-01T09:02:40.810Z,8.00
2022-10-01T09:07:51.008Z,4.43
2022-10-01T09:12:53.905Z,5.45
2022-10-01T09:17:59.674Z,4.95
2022-10-01T09:23:05.556Z,6.03
2022-10-01T09:28:12.797Z,4.78
2022-10-01T09:33:20.882Z,7.95
2022-10-01T09:38:21.464Z,6.30
2022-10-01T09:43:20.229Z,6.20
2022-10-01T09:48:20.822Z,6.10
2022-10-01T09:53:19.985Z,5.65
2022-10-01T09:58:19.434Z,8.20
2022-10-01T10:03:23.905Z,5.72
2022-10-01T10:08:22.330Z,5.10
2022-10-01T10:13:24.658Z,6.57
2022-10-01T10:18:25.335Z,4.97
2022-10-01T10:23:23.419Z,6.95
2022-10-01T10:28:23.899Z,7.10
2022-10-01T10:33:18.491Z,7.57
2022-10-01T10:38:19.163Z,11.85
2022-10-01T10:43:23.079Z,8.77
2022-10-01T10:48:21.254Z,7.75
2022-10-01T10:53:22.557Z,8.68
2022-10-01T10:58:16.618Z,7.90
2022-10-01T11:03:18.493Z,11.70
2022-10-01T11:08:17.919Z,8.10
2022-10-01T11:13:27.986Z,7.22
2022-10-01T11:18:46.458Z,7.40
2022-10-01T11:24:07.849Z,9.98
2022-10-01T11:29:17.721Z,6.32
2022-10-01T11:34:50.462Z,7.35
2022-10-01T11:39:48.522Z,6.63
2022-10-01T11:44:50.317Z,9.33
2022-10-01T11:49:52.068Z,9.23
2022-10-01T11:54:56.791Z,12.25
2022-10-01T11:59:54.656Z,10.00
2022-10-01T12:04:53.790Z,9.40
2022-10-01T12:14:52.720Z,7.57
2022-10-01T12:19:51.690Z,8.35
2022-10-01T12:24:46.135Z,7.90
2022-10-01T12:29:47.706Z,8.48
2022-10-01T12:34:53.303Z,8.55
2022-10-01T12:40:04.124Z,8.07
2022-10-01T12:45:06.889Z,9.55
2022-10-01T12:50:11.551Z,7.65
2022-10-01T12:55:35.463Z,10.02
2022-10-01T13:00:36.207Z,11.68
2022-10-01T13:05:38.826Z,8.90
2022-10-01T13:10:48.871Z,9.15
2022-10-01T13:15:47.761Z,10.35
2022-10-01T13:20:51.736Z,8.65
2022-10-01T13:25:59.342Z,8.75
2022-10-01T13:30:59.285Z,9.38
2022-10-01T13:36:04.455Z,6.50
2022-10-01T13:41:01.470Z,6.85
2022-10-01T13:45:56.540Z,9.45
2022-10-01T13:51:01.074Z,8.30
2022-10-01T13:55:57.004Z,9.07
2022-10-01T14:00:53.617Z,9.07
2022-10-01T14:05:48.578Z,13.23
2022-10-01T14:11:00.588Z,11.50
2022-10-01T14:16:02.851Z,15.52
2022-10-01T14:21:19.197Z,9.75
2022-10-01T14:26:21.410Z,8.18
2022-10-01T14:31:24.014Z,6.85
2022-10-01T14:36:19.916Z,9.23
2022-10-01T14:41:19.911Z,8.60
2022-10-01T14:46:16.865Z,11.48
2022-10-01T14:51:25.648Z,9.20
2022-10-01T14:56:19.164Z,8.63
2022-10-01T15:01:18.954Z,11.32
2022-10-01T15:06:14.893Z,10.38
2022-10-01T15:11:11.608Z,9.38
2022-10-01T15:16:16.018Z,8.85
2022-10-01T15:21:18.892Z,8.95
2022-10-01T15:26:20.905Z,9.40
2022-10-01T15:31:15.721Z,7.85
2022-10-01T15:36:17.613Z,9.45
2022-10-01T15:41:31.667Z,7.70
2022-10-01T15:46:33.212Z,8.80
2022-10-01T15:51:30.124Z,7.65
2022-10-01T15:56:25.375Z,8.00
2022-10-01T16:01:22.606Z,10.82
2022-10-01T16:06:19.980Z,6.65
2022-10-01T16:11:21.560Z,7.97
2022-10-01T16:16:30.631Z,5.60
2022-10-01T16:21:24.591Z,5.85
2022-10-01T16:26:37.812Z,5.72
2022-10-01T16:31:31.805Z,8.00
2022-10-01T16:36:26.533Z,7.95
2022-10-01T16:41:23.606Z,7.15
2022-10-01T16:46:18.328Z,13.38
2022-10-01T16:51:12.463Z,10.00
2022-10-01T16:56:05.647Z,5.85
2022-10-01T17:00:58.909Z,9.45
2022-10-01T17:05:53.719Z,6.47
2022-10-01T17:10:50.874Z,6.70
2022-10-01T17:15:44.480Z,5.55
2022-10-01T17:20:39.352Z,6.55
2022-10-01T17:25:38.495Z,4.10
2022-10-01T17:30:32.857Z,6.13
2022-10-01T17:35:28.367Z,6.15
2022-10-01T17:40:21.766Z,7.57
2022-10-01T17:45:16.369Z,5.47
2022-10-01T17:50:10.055Z,5.68
2022-10-01T17:55:03.335Z,6.15
2022-10-01T17:59:56.515Z,6.15
2022-10-01T18:04:51.109Z,4.53
2022-10-01T18:09:46.102Z,6.13
2022-10-01T18:14:39.801Z,5.50
2022-10-01T18:24:47.655Z,4.68
2022-10-01T18:29:40.877Z,8.02
2022-10-01T18:34:40.182Z,4.53
2022-10-01T18:39:42.144Z,9.02
2022-10-01T18:44:36.706Z,5.50
2022-10-01T18:49:53.354Z,6.68
2022-10-01T18:55:01.218Z,6.50
2022-10-01T19:00:04.343Z,5.15
2022-10-01T19:05:25.034Z,5.97
2022-10-01T19:10:28.042Z,9.45
2022-10-01T19:15:37.384Z,7.30
2022-10-01T19:20:49.971Z,6.35
2022-10-01T19:25:51.330Z,6.95
2022-10-01T19:30:58.121Z,6.65
2022-10-01T19:35:56.530Z,7.25
2022-10-01T19:40:57.226Z,6.10
2022-10-01T19:45:58.129Z,5.55
2022-10-01T19:50:56.984Z,8.95
2022-10-01T19:55:52.805Z,6.97
2022-10-01T20:00:53.697Z,6.00
2022-10-01T20:05:55.448Z,10.52
2022-10-01T20:10:55.999Z,8.48
2022-10-01T20:15:57.589Z,9.23
2022-10-01T20:21:06.561Z,9.55
2022-10-01T20:26:11.749Z,7.10
2022-10-01T20:31:16.232Z,6.55
2022-10-01T20:36:17.111Z,6.93
2022-10-01T20:41:15.719Z,7.18
2022-10-01T20:46:15.160Z,8.00
2022-10-01T20:51:18.975Z,5.55
2022-10-01T20:56:17.447Z,7.05
2022-10-01T21:01:18.633Z,6.15
2022-10-01T21:06:19.325Z,7.53
2022-10-01T21:11:22.759Z,5.20
2022-10-01T21:16:45.388Z,6.57
2022-10-01T21:21:46.158Z,8.93
2022-10-01T21:26:55.487Z,8.82
2022-10-01T21:32:02.848Z,7.38
2022-10-01T21:37:05.297Z,9.55
2022-10-01T21:42:11.312Z,9.98
2022-10-01T21:47:11.519Z,8.88
2022-10-01T21:52:16.156Z,11.45
2022-10-01T21:57:31.100Z,13.57
2022-10-01T22:02:37.925Z,10.30
2022-10-01T22:07:38.122Z,17.08
2022-10-01T22:12:36.305Z,10.00
2022-10-01T22:17:34.807Z,10.98
2022-10-01T22:22:31.765Z,8.55
2022-10-01T22:27:32.230Z,13.02
2022-10-01T22:32:31.787Z,13.27
2022-10-01T22:37:29.980Z,14.25
2022-10-01T22:42:29.776Z,7.20
2022-10-01T22:47:38.428Z,6.55
2022-10-01T22:52:39.298Z,9.32
2022-10-01T22:57:50.643Z,9.52
2022-10-01T23:02:55.978Z,6.55
2022-10-01T23:07:59.368Z,5.25
2022-10-01T23:13:17.171Z,6.13
2022-10-01T23:18:29.411Z,8.75
2022-10-01T23:23:31.168Z,9.77
2022-10-01T23:28:37.136Z,8.45
2022-10-01T23:33:50.750Z,7.82
2022-10-01T23:39:01.877Z,5.57
2022-10-01T23:44:06.622Z,5.80
2022-10-01T23:49:06.496Z,6.47
2022-10-01T23:59:03.152Z,6.45
